Time;durP1;ratioP1;P1;durP2;ratioP2;P2;SDS_P1;SDS_P2;PMS_P1;PMS_P2;Temp;Humidity;BMP_temperature;BMP_pressure;BME280_temperature;BME280_humidity;BME280_pressure;Samples;Min_cycle;Max_cycle;Signal;HPM_P1;HPM_P2
2022/05/14 00:01:51;;;;;;;;;;;;;;;11.97;67.47;96982.06;4881376;29;19962;-71
2022/05/14 00:04:17;;;;;;;;;;;;;;;11.93;68.07;96981.69;4880960;29;19968;-72
2022/05/14 00:06:43;;;;;;;;;;;;;;;11.92;68.19;96979.28;4881570;29;19993;-72
2022/05/14 00:09:09;;;;;;;;;;;;;;;11.89;68.49;96984.97;4881606;29;20061;-71
2022/05/14 00:14:20;;;;;;;;;;;;;;;11.82;68.80;96977.06;4881281;29;19968;-71
2022/05/14 00:16:46;;;;;;;;;;;;;;;11.79;68.85;96977.50;4880880;29;19966;-72
2022/05/14 00:19:13;;;;;;;;;;;;;;;11.76;68.92;96977.94;4881164;29;20355;-72
2022/05/14 00:21:38;;;;;;;;;;;;;;;11.72;69.01;96982.00;4880676;29;19989;-71
2022/05/14 00:24:06;;;;;;;;;;;;;;;11.68;69.34;96979.00;4881010;29;19968;-72
2022/05/14 00:26:32;;;;;;;;;;;;;;;11.67;69.42;96984.44;4880776;29;20326;-72
2022/05/14 00:28:58;;;;;;;;;;;;;;;11.64;69.28;96977.00;4880528;29;20418;-72
2022/05/14 00:31:25;;;;;;;;;;;;;;;11.62;69.18;96971.16;4880585;29;19991;-72
2022/05/14 00:33:51;;;;;;;;;;;;;;;11.57;69.58;96969.16;4880782;29;19967;-71
2022/05/14 00:36:16;;;;;;;;;;;;;;;11.53;69.39;96975.84;4880880;29;20373;-71
2022/05/14 00:38:42;;;;;;;;;;;;;;;11.50;69.34;96971.81;4875960;29;20369;-72
2022/05/14 00:41:08;;;;;;;;;;;;;;;11.48;69.42;96958.06;4877221;29;20026;-71
2022/05/14 00:43:45;;;;;;;;;;;;;;;11.46;69.41;96965.34;4880398;29;20411;-71
2022/05/14 00:46:20;;;;;;;;;;;;;;;11.43;69.75;96968.41;4880402;29;19983;-71
2022/05/14 00:48:47;;;;;;;;;;;;;;;11.41;69.88;96967.81;4880294;29;20306;-71
2022/05/14 00:51:19;;;;;;;;;;;;;;;11.36;69.83;96963.22;4880216;29;19978;-71
2022/05/14 00:53:51;;;;;;;;;;;;;;;11.34;69.80;96967.88;4880075;29;19966;-72
2022/05/14 00:56:28;;;;;;;;;;;;;;;11.31;70.18;96954.34;4880080;29;19961;-72
2022/05/14 00:58:54;;;;;;;;;;;;;;;11.28;69.86;96960.03;4880194;29;19958;-72
2022/05/14 01:01:20;;;;;;;;;;;;;;;11.26;70.14;96962.06;4880022;29;19963;-72
2022/05/14 01:03:46;;;;;;;;;;;;;;;11.23;69.68;96955.38;4880327;29;20416;-72
2022/05/14 01:06:14;;;;;;;;;;;;;;;11.21;70.01;96957.41;4879929;29;19963;-72
2022/05/14 01:08:41;;;;;;;;;;;;;;;11.17;70.19;96962.28;4880158;29;19958;-72
2022/05/14 01:11:07;;;;;;;;;;;;;;;11.14;70.27;96956.63;4879924;29;19982;-71
2022/05/14 01:13:33;;;;;;;;;;;;;;;11.10;69.96;96955.44;4880098;29;19956;-71
2022/05/14 01:16:00;;;;;;;;;;;;;;;11.08;70.63;96960.91;4879856;29;19964;-71
2022/05/14 01:18:27;;;;;;;;;;;;;;;11.05;70.24;96952.66;4879864;29;19968;-71
2022/05/14 01:20:56;;;;;;;;;;;;;;;11.02;70.18;96958.28;4888741;29;20567;-71
2022/05/14 01:23:31;;;;;;;;;;;;;;;10.98;69.99;96952.66;4879230;29;19975;-72
2022/05/14 01:28:41;;;;;;;;;;;;;;;10.96;70.19;96954.69;4880348;29;19957;-71
2022/05/14 01:31:07;;;;;;;;;;;;;;;10.95;70.21;96966.19;4879436;29;20330;-71
2022/05/14 01:33:33;;;;;;;;;;;;;;;10.93;70.49;96965.59;4879514;29;19968;-72
2022/05/14 01:35:59;;;;;;;;;;;;;;;10.91;70.73;96967.63;4879585;29;19972;-72
2022/05/14 01:38:25;;;;;;;;;;;;;;;10.88;70.99;96965.44;4877725;29;19998;-72
2022/05/14 01:40:51;;;;;;;;;;;;;;;10.84;70.48;96972.91;4876344;29;20041;-72
2022/05/14 01:43:17;;;;;;;;;;;;;;;10.81;70.13;96968.03;4879802;29;20321;-72
2022/05/14 01:45:43;;;;;;;;;;;;;;;10.80;70.24;96971.69;4879655;29;20423;-71
2022/05/14 01:48:09;;;;;;;;;;;;;;;10.76;70.53;96963.41;4879533;29;19965;-71
2022/05/14 01:50:35;;;;;;;;;;;;;;;10.74;70.31;96970.69;4879891;29;19985;-71
2022/05/14 01:53:01;;;;;;;;;;;;;;;10.70;70.48;96969.50;4879455;29;19967;-71
2022/05/14 01:55:27;;;;;;;;;;;;;;;10.68;70.13;96966.25;4880040;29;19983;-71
2022/05/14 01:57:53;;;;;;;;;;;;;;;10.67;69.79;96969.13;4882858;29;19963;-71
2022/05/14 02:00:21;;;;;;;;;;;;;;;10.64;70.46;96970.31;4883195;29;20445;-70
2022/05/14 02:02:47;;;;;;;;;;;;;;;10.61;70.46;96977.81;4883304;29;20445;-71
2022/05/14 02:05:14;;;;;;;;;;;;;;;10.59;70.53;96971.94;4882987;29;19960;-72
2022/05/14 02:07:40;;;;;;;;;;;;;;;10.56;70.57;96967.91;4883286;29;20429;-71
2022/05/14 02:10:06;;;;;;;;;;;;;;;10.55;70.79;96974.16;4882870;29;19979;-70
2022/05/14 02:12:32;;;;;;;;;;;;;;;10.51;71.16;96970.34;4883429;29;20324;-71
2022/05/14 02:14:57;;;;;;;;;;;;;;;10.49;71.07;96967.91;4882827;29;19958;-71
2022/05/14 02:17:23;;;;;;;;;;;;;;;10.45;70.57;96966.72;4883118;29;20422;-71
2022/05/14 02:19:50;;;;;;;;;;;;;;;10.43;70.96;96973.16;4882636;29;20005;-71
2022/05/14 02:22:16;;;;;;;;;;;;;;;10.42;72.60;96966.34;4883221;29;20053;-71
2022/05/14 02:24:42;;;;;;;;;;;;;;;10.41;71.73;96957.63;4882691;29;19967;-71
2022/05/14 02:27:10;;;;;;;;;;;;;;;10.39;71.84;96964.09;4882949;29;19966;-71
2022/05/14 02:29:51;;;;;;;;;;;;;;;10.34;71.66;96959.47;4882614;29;20060;-71
2022/05/14 02:32:17;;;;;;;;;;;;;;;10.30;71.92;96961.69;4882743;29;19970;-71
2022/05/14 02:34:43;;;;;;;;;;;;;;;10.28;72.06;96968.13;4883249;29;19961;-72
2022/05/14 02:37:09;;;;;;;;;;;;;;;10.23;72.02;96960.06;4882552;29;20312;-71
2022/05/14 02:39:35;;;;;;;;;;;;;;;10.20;72.03;96958.63;4871646;29;20032;-71
2022/05/14 02:42:01;;;;;;;;;;;;;;;10.19;72.06;96970.13;4882746;29;20497;-71
2022/05/14 02:44:27;;;;;;;;;;;;;;;10.17;72.43;96974.78;4882363;29;20393;-71
2022/05/14 02:46:53;;;;;;;;;;;;;;;10.14;72.36;96968.13;4882361;29;19968;-71
2022/05/14 02:49:18;;;;;;;;;;;;;;;10.11;72.50;96973.75;4882509;29;20007;-72
2022/05/14 02:51:45;;;;;;;;;;;;;;;10.09;72.33;96972.34;4882436;29;19988;-71
2022/05/14 02:54:11;;;;;;;;;;;;;;;10.05;72.22;96965.91;4882131;29;19973;-71
2022/05/14 02:56:37;;;;;;;;;;;;;;;10.01;72.39;96967.31;4882472;29;19968;-71
2022/05/14 02:59:08;;;;;;;;;;;;;;;9.98;72.48;96965.91;4881970;29;19973;-71
2022/05/14 03:01:35;;;;;;;;;;;;;;;9.95;72.15;96961.88;4882240;29;20435;-71
2022/05/14 03:04:01;;;;;;;;;;;;;;;9.94;72.17;96962.06;4882183;29;19967;-71
2022/05/14 03:06:27;;;;;;;;;;;;;;;9.93;72.96;96963.06;4881989;29;19964;-71
2022/05/14 03:08:53;;;;;;;;;;;;;;;9.93;72.89;96965.69;4880970;29;20377;-72
2022/05/14 03:11:19;;;;;;;;;;;;;;;9.91;72.99;96960.66;4881937;29;19985;-71
2022/05/14 03:13:45;;;;;;;;;;;;;;;9.90;72.69;96968.72;4881788;29;19962;-72
2022/05/14 03:16:11;;;;;;;;;;;;;;;9.86;72.70;96960.44;4882172;29;20096;-72
2022/05/14 03:18:37;;;;;;;;;;;;;;;9.84;72.55;96959.84;4881355;29;20422;-72
2022/05/14 03:21:03;;;;;;;;;;;;;;;9.80;72.49;96963.88;4881391;29;19995;-72
2022/05/14 03:23:29;;;;;;;;;;;;;;;9.77;72.53;96961.66;4881746;29;19966;-72
2022/05/14 03:25:55;;;;;;;;;;;;;;;9.73;72.60;96961.25;4881905;29;19972;-71
2022/05/14 03:28:21;;;;;;;;;;;;;;;9.71;72.49;96960.63;4881674;29;20334;-71
2022/05/14 03:30:47;;;;;;;;;;;;;;;9.69;73.12;96961.84;4881438;29;19988;-72
2022/05/14 03:33:13;;;;;;;;;;;;;;;9.68;72.97;96965.44;4881672;29;19960;-72
2022/05/14 03:35:39;;;;;;;;;;;;;;;9.65;72.87;96955.38;4881540;29;20020;-72
2022/05/14 03:38:05;;;;;;;;;;;;;;;9.63;72.73;96955.56;4881648;29;19972;-72
2022/05/14 03:40:31;;;;;;;;;;;;;;;9.61;73.20;96954.16;4859113;29;19962;-72
2022/05/14 03:42:57;;;;;;;;;;;;;;;9.60;73.15;96952.56;4881695;29;19968;-72
2022/05/14 03:45:23;;;;;;;;;;;;;;;9.58;73.36;96957.19;4881706;29;20472;-72
2022/05/14 03:47:49;;;;;;;;;;;;;;;9.57;73.26;96952.94;4881435;29;19958;-72
2022/05/14 03:50:15;;;;;;;;;;;;;;;9.54;73.38;96952.34;4881228;29;19973;-72
2022/05/14 03:52:41;;;;;;;;;;;;;;;9.53;73.67;96961.22;4881607;29;20494;-72
2022/05/14 03:55:07;;;;;;;;;;;;;;;9.51;73.63;96957.16;4881394;29;19986;-72
2022/05/14 03:57:33;;;;;;;;;;;;;;;9.50;73.47;96955.56;4881269;29;19965;-72
2022/05/14 04:00:01;;;;;;;;;;;;;;;9.48;73.57;96954.94;4881472;29;19970;-72
2022/05/14 04:02:27;;;;;;;;;;;;;;;9.47;73.56;96953.31;4881594;29;19983;-72
2022/05/14 04:04:53;;;;;;;;;;;;;;;9.47;73.39;96945.47;4881211;29;20401;-72
2022/05/14 04:07:19;;;;;;;;;;;;;;;9.45;73.48;96950.94;4881204;29;20348;-71
2022/05/14 04:09:45;;;;;;;;;;;;;;;9.46;74.09;96949.09;4881012;29;19961;-72
2022/05/14 04:12:13;;;;;;;;;;;;;;;9.45;74.16;96953.53;4879754;29;19984;-72
2022/05/14 04:14:39;;;;;;;;;;;;;;;9.44;74.08;96949.28;4880992;29;19953;-72
2022/05/14 04:17:05;;;;;;;;;;;;;;;9.46;73.53;96949.91;4881111;29;19977;-72
2022/05/14 04:19:31;;;;;;;;;;;;;;;9.46;73.08;96949.91;4880590;29;20312;-72
2022/05/14 04:21:57;;;;;;;;;;;;;;;9.48;73.23;96955.75;4880873;29;19981;-72
2022/05/14 04:24:23;;;;;;;;;;;;;;;9.50;73.49;96958.19;4880968;29;19974;-72
2022/05/14 04:26:49;;;;;;;;;;;;;;;9.51;74.22;96958.00;4880763;29;20496;-72
2022/05/14 04:29:15;;;;;;;;;;;;;;;9.58;74.23;96958.00;4880720;29;20336;-72
2022/05/14 04:31:40;;;;;;;;;;;;;;;9.66;74.08;96951.75;4880841;29;20043;-72
2022/05/14 04:34:06;;;;;;;;;;;;;;;9.79;73.85;96951.00;4880526;29;19969;-72
2022/05/14 04:36:32;;;;;;;;;;;;;;;9.92;73.71;96959.66;4880377;29;19967;-72
2022/05/14 04:38:58;;;;;;;;;;;;;;;10.11;73.88;96968.53;4879394;29;20378;-72
2022/05/14 04:41:27;;;;;;;;;;;;;;;10.34;73.50;96957.66;4879457;29;20011;-72
2022/05/14 04:43:53;;;;;;;;;;;;;;;10.57;72.85;96957.22;4880417;29;20413;-72
2022/05/14 04:46:18;;;;;;;;;;;;;;;10.81;72.53;96952.31;4880538;29;19971;-72
2022/05/14 04:48:44;;;;;;;;;;;;;;;11.09;71.64;96953.84;4880308;29;19967;-72
2022/05/14 04:51:10;;;;;;;;;;;;;;;11.38;70.83;96949.84;4880211;29;20016;-72
2022/05/14 04:53:36;;;;;;;;;;;;;;;11.71;70.81;96952.28;4887867;29;19976;-72
2022/05/14 04:56:02;;;;;;;;;;;;;;;12.05;69.53;96941.56;4880079;29;20056;-73
2022/05/14 04:58:28;;;;;;;;;;;;;;;12.37;69.02;96934.41;4880068;29;20450;-73
2022/05/14 05:00:55;;;;;;;;;;;;;;;12.68;68.23;96933.50;4880264;29;20450;-74
2022/05/14 05:03:21;;;;;;;;;;;;;;;12.97;67.56;96928.50;4879960;29;19971;-73
2022/05/14 05:05:49;;;;;;;;;;;;;;;13.24;66.96;96931.63;4879763;29;20045;-72
2022/05/14 05:08:16;;;;;;;;;;;;;;;13.51;65.65;96926.03;4879877;29;19962;-73
2022/05/14 05:10:42;;;;;;;;;;;;;;;13.69;64.65;96914.59;4879908;29;20369;-73
2022/05/14 05:13:12;;;;;;;;;;;;;;;13.80;64.41;96908.56;4879411;29;19970;-73
2022/05/14 05:15:39;;;;;;;;;;;;;;;13.76;63.40;96907.41;4880474;29;20361;-73
2022/05/14 05:18:06;;;;;;;;;;;;;;;13.76;63.94;96916.13;4879968;29;19970;-73
2022/05/14 05:20:54;;;;;;;;;;;;;;;13.76;64.04;96918.75;4879496;29;19982;-73
2022/05/14 05:23:21;;;;;;;;;;;;;;;13.85;63.58;96923.69;4878986;29;19976;-73
2022/05/14 05:25:48;;;;;;;;;;;;;;;13.97;63.84;96916.63;4879780;29;19966;-73
2022/05/14 05:28:14;;;;;;;;;;;;;;;14.17;63.89;96926.81;4879667;29;19970;-73
2022/05/14 05:30:39;;;;;;;;;;;;;;;14.54;63.64;96932.66;4879072;29;20433;-72
2022/05/14 05:33:09;;;;;;;;;;;;;;;14.97;62.76;96913.00;4879784;29;20515;-73
2022/05/14 05:35:35;;;;;;;;;;;;;;;15.35;62.26;96914.25;4879890;29;19955;-73
2022/05/14 05:38:01;;;;;;;;;;;;;;;15.46;60.72;96895.94;4880183;29;20369;-74
2022/05/14 05:40:27;;;;;;;;;;;;;;;15.47;60.55;96889.59;4879439;29;19967;-73
2022/05/14 05:42:53;;;;;;;;;;;;;;;15.48;60.24;96891.22;4879690;29;19962;-73
2022/05/14 05:45:19;;;;;;;;;;;;;;;15.65;60.37;96902.59;4879857;29;19965;-73
2022/05/14 05:47:45;;;;;;;;;;;;;;;15.86;60.29;96897.69;4879658;29;19969;-73
2022/05/14 05:50:12;;;;;;;;;;;;;;;15.85;57.46;96878.34;4879731;29;19962;-73
2022/05/14 05:52:38;;;;;;;;;;;;;;;15.89;57.71;96882.13;4879673;29;19981;-73
2022/05/14 05:57:48;;;;;;;;;;;;;;;16.22;57.80;96869.91;4879828;29;19958;-72
2022/05/14 06:00:16;;;;;;;;;;;;;;;16.31;57.91;96871.09;4879343;29;19974;-73
2022/05/14 06:02:42;;;;;;;;;;;;;;;16.51;57.80;96870.59;4879518;29;19977;-73
2022/05/14 06:05:08;;;;;;;;;;;;;;;16.62;57.06;96856.41;4879348;29;20060;-73
2022/05/14 06:07:34;;;;;;;;;;;;;;;16.64;57.29;96872.84;4878725;29;20329;-72
2022/05/14 06:10:01;;;;;;;;;;;;;;;16.73;56.43;96859.97;4879597;29;19956;-73
2022/05/14 06:12:27;;;;;;;;;;;;;;;16.95;55.59;96853.91;4879157;29;19982;-72
2022/05/14 06:14:52;;;;;;;;;;;;;;;16.95;54.97;96849.41;4879678;29;19969;-73
2022/05/14 06:17:18;;;;;;;;;;;;;;;16.90;56.42;96867.88;4879096;29;19965;-73
2022/05/14 06:19:44;;;;;;;;;;;;;;;17.17;56.33;96867.13;4879424;29;20047;-73
2022/05/14 06:22:10;;;;;;;;;;;;;;;17.40;55.36;96850.91;4883508;29;20043;-72
2022/05/14 06:24:37;;;;;;;;;;;;;;;17.72;55.21;96852.75;4875139;29;20039;-73
2022/05/14 06:27:03;;;;;;;;;;;;;;;17.99;53.08;96830.72;4893023;29;19964;-72
2022/05/14 06:29:31;;;;;;;;;;;;;;;17.97;53.62;96844.22;4888515;29;19961;-72
2022/05/14 06:32:00;;;;;;;;;;;;;;;18.06;53.58;96839.25;4886031;29;19977;-73
2022/05/14 06:34:26;;;;;;;;;;;;;;;18.25;52.66;96829.81;4886850;29;19972;-73
2022/05/14 06:36:52;;;;;;;;;;;;;;;18.39;51.24;96816.84;4890764;29;20320;-73
2022/05/14 06:39:18;;;;;;;;;;;;;;;18.39;47.91;96774.38;4885963;29;19955;-73
2022/05/14 06:41:44;;;;;;;;;;;;;;;18.40;49.86;96813.16;4889777;29;19968;-73
2022/05/14 06:44:10;;;;;;;;;;;;;;;18.21;50.99;96819.97;4893721;29;20010;-73
2022/05/14 06:46:36;;;;;;;;;;;;;;;18.00;49.95;96848.25;4888453;29;19990;-75
2022/05/14 06:49:03;;;;;;;;;;;;;;;17.91;50.00;96860.38;4890764;29;19963;-73
2022/05/14 06:51:29;;;;;;;;;;;;;;;18.12;51.20;96870.09;4891194;29;19979;-73
2022/05/14 06:53:59;;;;;;;;;;;;;;;18.45;51.81;96879.56;4895111;29;19962;-73
2022/05/14 06:56:57;;;;;;;;;;;;;;;18.83;50.34;96874.19;4861699;29;19966;-73
2022/05/14 06:59:22;;;;;;;;;;;;;;;19.14;49.41;96861.78;4891175;29;19964;-73
2022/05/14 07:01:48;;;;;;;;;;;;;;;19.37;46.68;96841.91;4893557;29;20419;-73
2022/05/14 07:07:03;;;;;;;;;;;;;;;19.64;48.42;96865.59;4872963;29;19968;-73
2022/05/14 07:09:29;;;;;;;;;;;;;;;19.59;46.66;96846.16;4888579;29;20342;-73
2022/05/14 07:11:58;;;;;;;;;;;;;;;19.33;45.43;96853.34;4895438;29;20660;-73
2022/05/14 07:14:25;;;;;;;;;;;;;;;19.15;46.97;96866.06;4890622;29;20343;-73
2022/05/14 07:16:53;;;;;;;;;;;;;;;19.23;48.24;96872.72;4889127;29;20321;-73
2022/05/14 07:19:19;;;;;;;;;;;;;;;19.38;48.05;96861.31;4891451;29;19969;-73
2022/05/14 07:21:45;;;;;;;;;;;;;;;19.47;47.04;96857.88;4886190;29;20019;-73
2022/05/14 07:24:19;;;;;;;;;;;;;;;19.55;49.20;96895.63;4870551;29;19976;-72
2022/05/14 07:26:45;;;;;;;;;;;;;;;19.74;47.19;96866.69;4882096;29;19963;-71
2022/05/14 07:29:13;;;;;;;;;;;;;;;19.71;45.49;96896.50;4881975;29;19971;-72
2022/05/14 07:31:39;;;;;;;;;;;;;;;19.56;46.47;96916.66;4881750;29;20365;-71
2022/05/14 07:34:06;;;;;;;;;;;;;;;19.72;49.22;96930.00;4881744;29;19959;-71
2022/05/14 07:36:35;;;;;;;;;;;;;;;19.97;49.56;96931.88;4881222;29;19973;-71
2022/05/14 07:39:04;;;;;;;;;;;;;;;20.19;47.30;96913.00;4874945;29;19978;-70
2022/05/14 07:41:32;;;;;;;;;;;;;;;20.10;41.14;96880.00;4877182;29;20323;-73
2022/05/14 07:44:00;;;;;;;;;;;;;;;20.06;44.84;96915.13;4881614;29;20338;-73
2022/05/14 07:46:28;;;;;;;;;;;;;;;20.14;44.91;96916.47;4881440;29;20124;-73
2022/05/14 07:48:55;;;;;;;;;;;;;;;20.25;44.57;96914.59;4888382;29;20329;-73
2022/05/14 07:51:47;;;;;;;;;;;;;;;20.17;42.77;96907.13;4860514;29;19999;-73
2022/05/14 07:54:13;;;;;;;;;;;;;;;20.15;43.45;96909.28;4880582;29;20044;-73
2022/05/14 07:56:40;;;;;;;;;;;;;;;20.17;44.19;96909.81;4880635;29;19973;-73
2022/05/14 07:59:06;;;;;;;;;;;;;;;20.17;44.46;96913.25;4881064;29;19966;-73
2022/05/14 08:01:32;;;;;;;;;;;;;;;20.29;43.47;96902.34;4881037;29;19964;-73
2022/05/14 08:03:58;;;;;;;;;;;;;;;20.26;45.22;96909.00;4881270;29;20027;-73
2022/05/14 08:06:24;;;;;;;;;;;;;;;20.14;40.73;96884.50;4881291;29;19965;-72
2022/05/14 08:08:51;;;;;;;;;;;;;;;20.05;42.97;96902.91;4880928;29;19964;-73
2022/05/14 08:11:17;;;;;;;;;;;;;;;19.99;41.67;96890.66;4880842;29;19970;-73
2022/05/14 08:13:43;;;;;;;;;;;;;;;20.11;40.96;96895.69;4881047;29;19959;-73
2022/05/14 08:16:09;;;;;;;;;;;;;;;20.13;44.45;96909.53;4881542;29;19966;-73
2022/05/14 08:18:35;;;;;;;;;;;;;;;20.08;41.34;96890.91;4881294;29;19970;-73
2022/05/14 08:24:29;;;;;;;;;;;;;;;19.97;42.76;96916.75;4881215;29;19994;-73
2022/05/14 08:26:31;;;;;;;;;;;;;;;20.15;42.13;96902.06;4880782;29;20377;-73
2022/05/14 08:28:57;;;;;;;;;;;;;;;20.33;42.47;96905.25;4880639;29;19966;-73
2022/05/14 08:31:23;;;;;;;;;;;;;;;20.32;40.76;96885.78;4881106;29;19971;-73
2022/05/14 08:33:48;;;;;;;;;;;;;;;20.35;40.78;96882.63;4880540;29;20009;-73
2022/05/14 08:36:14;;;;;;;;;;;;;;;20.44;41.70;96899.63;4885643;29;19989;-73
2022/05/14 08:38:40;;;;;;;;;;;;;;;20.55;41.51;96887.06;4884694;29;19962;-73
2022/05/14 08:41:06;;;;;;;;;;;;;;;20.48;40.38;96903.34;4880685;29;20416;-73
2022/05/14 08:43:36;;;;;;;;;;;;;;;20.52;40.74;96902.81;4880448;29;21413;-73
2022/05/14 08:46:06;;;;;;;;;;;;;;;20.51;42.73;96919.88;4889449;29;20423;-73
2022/05/14 08:48:37;;;;;;;;;;;;;;;20.62;41.96;96921.47;4880401;29;19963;-73
2022/05/14 08:51:05;;;;;;;;;;;;;;;20.68;40.98;96907.06;4880097;29;19966;-73
2022/05/14 08:53:32;;;;;;;;;;;;;;;20.76;41.29;96906.50;4870318;29;19982;-73
2022/05/14 08:56:01;;;;;;;;;;;;;;;20.80;41.41;96910.22;4879588;29;19971;-74
2022/05/14 08:58:27;;;;;;;;;;;;;;;20.87;41.37;96910.75;4880859;29;20033;-73
2022/05/14 09:00:56;;;;;;;;;;;;;;;20.97;41.34;96901.88;4880023;29;19966;-73
2022/05/14 09:03:22;;;;;;;;;;;;;;;20.88;39.10;96898.19;4880281;29;19957;-73
2022/05/14 09:05:53;;;;;;;;;;;;;;;20.89;41.11;96910.44;4880093;29;20043;-73
2022/05/14 09:08:19;;;;;;;;;;;;;;;21.03;42.08;96910.66;4880395;29;19966;-73
2022/05/14 09:10:53;;;;;;;;;;;;;;;21.14;41.40;96908.75;4880202;29;20366;-72
2022/05/14 09:13:20;;;;;;;;;;;;;;;21.19;41.26;96903.41;4880436;29;19986;-72
2022/05/14 09:15:52;;;;;;;;;;;;;;;21.06;41.13;96910.09;4880043;29;19962;-73
2022/05/14 09:18:22;;;;;;;;;;;;;;;21.05;41.61;96911.19;4879719;29;20425;-73
2022/05/14 09:20:54;;;;;;;;;;;;;;;20.97;39.28;96893.09;4881596;29;19996;-73
2022/05/14 09:23:24;;;;;;;;;;;;;;;20.96;40.69;96905.63;4891494;29;19969;-73
2022/05/14 09:25:54;;;;;;;;;;;;;;;20.76;40.65;96897.72;4884457;29;19964;-73
2022/05/14 09:28:31;;;;;;;;;;;;;;;20.67;39.97;96892.16;4879994;29;20637;-72
2022/05/14 09:30:58;;;;;;;;;;;;;;;20.77;41.82;96904.66;4884578;29;19977;-72
2022/05/14 09:33:34;;;;;;;;;;;;;;;20.83;40.92;96899.03;4876217;29;19979;-73
2022/05/14 09:36:00;;;;;;;;;;;;;;;20.98;42.53;96908.03;4876998;29;19961;-72
2022/05/14 09:38:27;;;;;;;;;;;;;;;21.09;41.92;96901.56;4849038;29;20432;-72
2022/05/14 09:40:55;;;;;;;;;;;;;;;21.24;40.58;96890.81;4861710;29;19964;-72
2022/05/14 09:43:23;;;;;;;;;;;;;;;21.41;41.42;96895.00;4880315;29;19964;-73
2022/05/14 09:46:29;;;;;;;;;;;;;;;21.66;42.95;96897.53;4803155;29;19970;-73
2022/05/14 09:49:03;;;;;;;;;;;;;;;21.72;39.76;96876.94;4788358;29;19961;-72
2022/05/14 09:51:31;;;;;;;;;;;;;;;21.74;40.49;96876.66;4816794;29;20467;-72
2022/05/14 09:54:08;;;;;;;;;;;;;;;21.69;39.55;96880.97;4811627;29;19962;-73
2022/05/14 09:56:53;;;;;;;;;;;;;;;21.73;40.86;96881.19;4871861;29;19983;-72
2022/05/14 09:59:39;;;;;;;;;;;;;;;21.93;40.75;96882.13;4895161;29;19966;-72
2022/05/14 10:02:19;;;;;;;;;;;;;;;22.15;40.71;96885.09;4857813;29;20366;-72
2022/05/14 10:04:54;;;;;;;;;;;;;;;22.37;41.26;96887.34;4889345;29;19974;-72
2022/05/14 10:07:42;;;;;;;;;;;;;;;22.44;40.51;96879.78;4886536;29;19974;-72
2022/05/14 10:10:14;;;;;;;;;;;;;;;22.55;40.33;96877.00;4887208;29;19969;-71
2022/05/14 10:12:45;;;;;;;;;;;;;;;22.70;40.96;96876.84;4890116;29;19970;-71
2022/05/14 10:15:17;;;;;;;;;;;;;;;22.88;38.79;96865.34;4890355;29;19961;-71
2022/05/14 10:17:46;;;;;;;;;;;;;;;22.83;39.48;96876.13;4890073;29;19960;-71
2022/05/14 10:20:27;;;;;;;;;;;;;;;22.82;39.20;96861.16;4890351;29;20424;-71
2022/05/14 10:28:52;;;;;;;;;;;;;;;22.89;39.66;96864.28;4880758;29;19958;-72
2022/05/14 10:31:26;;;;;;;;;;;;;;;22.96;37.14;96847.09;4891095;29;20086;-72
2022/05/14 10:33:54;;;;;;;;;;;;;;;23.07;39.12;96865.41;4884923;29;19987;-72
2022/05/14 10:36:23;;;;;;;;;;;;;;;22.98;37.44;96845.72;4891742;29;19969;-72
2022/05/14 10:38:53;;;;;;;;;;;;;;;22.98;37.39;96842.25;4892610;29;19985;-72
2022/05/14 10:41:35;;;;;;;;;;;;;;;23.12;37.80;96843.16;4892704;29;19972;-72
2022/05/14 10:44:03;;;;;;;;;;;;;;;23.13;38.78;96846.63;4885811;29;19971;-72
2022/05/14 10:46:32;;;;;;;;;;;;;;;23.17;38.04;96845.75;4889634;29;20338;-72
2022/05/14 10:49:11;;;;;;;;;;;;;;;23.29;38.08;96850.69;4890778;29;19965;-72
2022/05/14 10:51:41;;;;;;;;;;;;;;;23.39;38.23;96836.34;4895171;29;20051;-72
2022/05/14 10:54:12;;;;;;;;;;;;;;;23.59;39.28;96854.78;4893089;29;20346;-72
2022/05/14 10:56:37;;;;;;;;;;;;;;;;;;4873990;29;20438;-72
2022/05/14 10:59:05;;;;;;;;;;;;;;;23.85;37.74;96847.13;4881503;29;19961;-72
2022/05/14 11:01:34;;;;;;;;;;;;;;;23.89;36.64;96833.97;4890611;29;20005;-72
2022/05/14 11:04:18;;;;;;;;;;;;;;;23.94;37.86;96846.47;4895719;29;19956;-72
2022/05/14 11:06:54;;;;;;;;;;;;;;;23.84;36.41;96840.22;4891285;29;19962;-72
2022/05/14 11:09:22;;;;;;;;;;;;;;;23.74;36.13;96843.03;4879659;29;19962;-72
2022/05/14 11:11:51;;;;;;;;;;;;;;;23.75;35.92;96838.47;4891899;29;19960;-71
2022/05/14 11:14:16;;;;;;;;;;;;;;;23.94;38.38;96849.97;4878920;29;19967;-72
2022/05/14 11:16:44;;;;;;;;;;;;;;;24.00;34.57;96824.69;4870542;29;20001;-72
2022/05/14 11:19:22;;;;;;;;;;;;;;;24.11;36.95;96842.16;4875532;29;20442;-72
2022/05/14 11:21:49;;;;;;;;;;;;;;;24.42;37.82;96840.78;4894098;29;20462;-72
2022/05/14 11:24:15;;;;;;;;;;;;;;;24.71;36.48;96830.59;4878427;29;19978;-72
2022/05/14 11:26:52;;;;;;;;;;;;;;;24.71;34.38;96811.81;4887822;29;19971;-72
2022/05/14 11:29:24;;;;;;;;;;;;;;;24.48;35.80;96824.31;4884675;29;19974;-72
2022/05/14 11:31:52;;;;;;;;;;;;;;;24.34;36.57;96836.94;4891466;29;19981;-72
2022/05/14 11:34:21;;;;;;;;;;;;;;;24.48;37.02;96837.72;4889075;29;19974;-72
2022/05/14 11:36:49;;;;;;;;;;;;;;;24.76;37.21;96829.69;4880390;29;19963;-72
2022/05/14 11:39:22;;;;;;;;;;;;;;;24.99;34.76;96819.00;4895331;29;19960;-72
2022/05/14 11:41:52;;;;;;;;;;;;;;;25.04;36.55;96821.59;4883972;29;20059;-72
2022/05/14 11:44:35;;;;;;;;;;;;;;;25.05;35.17;96817.78;4896665;29;19982;-72
2022/05/14 11:47:02;;;;;;;;;;;;;;;24.97;34.97;96818.50;4885701;29;20351;-71
2022/05/14 11:50:02;;;;;;;;;;;;;;;25.01;34.41;96808.75;4814041;29;19971;-72
2022/05/14 11:52:37;;;;;;;;;;;;;;;24.98;35.92;96807.47;4848702;29;19980;-72
2022/05/14 11:55:06;;;;;;;;;;;;;;;24.97;35.31;96805.09;4890047;29;19965;-72
2022/05/14 11:57:35;;;;;;;;;;;;;;;25.11;35.84;96803.16;4893795;29;19967;-72
2022/05/14 12:00:08;;;;;;;;;;;;;;;25.39;35.31;96798.53;4887769;29;19971;-72
2022/05/14 12:02:33;;;;;;;;;;;;;;;25.49;35.21;96806.34;4891823;29;19980;-72
2022/05/14 12:05:00;;;;;;;;;;;;;;;25.39;34.95;96787.81;4889963;29;20021;-72
2022/05/14 12:07:37;;;;;;;;;;;;;;;25.40;34.25;96786.69;4878726;29;20364;-72
2022/05/14 12:10:05;;;;;;;;;;;;;;;25.57;35.24;96782.53;4883649;29;19971;-72
2022/05/14 12:12:31;;;;;;;;;;;;;;;25.69;33.68;96774.72;4889669;29;19970;-72
2022/05/14 12:15:09;;;;;;;;;;;;;;;25.61;34.70;96781.63;4887300;29;20052;-72
2022/05/14 12:17:34;;;;;;;;;;;;;;;25.39;31.82;96770.88;4890849;29;19966;-72
2022/05/14 12:20:02;;;;;;;;;;;;;;;25.35;34.38;96781.47;4887545;29;19981;-72
2022/05/14 12:22:29;;;;;;;;;;;;;;;25.57;34.85;96786.00;4887890;29;20076;-71
2022/05/14 12:25:01;;;;;;;;;;;;;;;25.89;34.55;96792.22;4892173;29;19960;-72
2022/05/14 12:27:28;;;;;;;;;;;;;;;26.09;33.02;96764.81;4884247;29;19955;-72
2022/05/14 12:29:59;;;;;;;;;;;;;;;26.22;33.97;96773.09;4879516;29;19962;-72
2022/05/14 12:35:20;;;;;;;;;;;;;;;26.16;32.34;96772.41;4890823;29;20418;-72
2022/05/14 12:37:46;;;;;;;;;;;;;;;26.20;34.80;96786.84;4886656;29;19962;-72
2022/05/14 12:40:21;;;;;;;;;;;;;;;26.27;33.77;96778.31;4866248;29;19958;-72
2022/05/14 12:42:47;;;;;;;;;;;;;;;26.32;32.86;96764.75;4894100;29;19970;-72
2022/05/14 12:45:12;;;;;;;;;;;;;;;26.29;33.57;96770.72;4874199;29;19995;-72
2022/05/14 12:47:38;;;;;;;;;;;;;;;26.24;33.93;96774.34;4892273;29;20033;-71
2022/05/14 12:50:18;;;;;;;;;;;;;;;26.19;34.11;96768.34;4892787;29;19964;-71
2022/05/14 12:52:52;;;;;;;;;;;;;;;26.24;34.12;96768.97;4889621;29;19985;-71
2022/05/14 12:55:19;;;;;;;;;;;;;;;26.34;34.39;96759.84;4890374;29;19969;-71
2022/05/14 12:57:46;;;;;;;;;;;;;;;26.30;33.06;96759.66;4883327;29;20433;-71
2022/05/14 13:00:15;;;;;;;;;;;;;;;26.20;34.75;96775.28;4882824;29;19962;-71
2022/05/14 13:02:48;;;;;;;;;;;;;;;26.06;34.74;96770.00;4885453;29;19992;-72
2022/05/14 13:05:19;;;;;;;;;;;;;;;25.70;34.84;96763.66;4873862;29;19977;-71
2022/05/14 13:07:47;;;;;;;;;;;;;;;25.51;35.51;96771.13;4878611;29;19962;-72
2022/05/14 13:10:16;;;;;;;;;;;;;;;25.43;34.79;96761.94;4873267;29;19970;-71
2022/05/14 13:12:46;;;;;;;;;;;;;;;25.49;34.95;96765.25;4887689;29;19980;-71
2022/05/14 13:15:12;;;;;;;;;;;;;;;25.56;35.43;96757.59;4884024;29;19961;-72
2022/05/14 13:17:38;;;;;;;;;;;;;;;25.70;32.88;96746.75;4888918;29;20322;-71